tititudorancea.com
Station Historical Data
Daily Summary for May 4, 2018 Units:  Metric    English   Both
« Previous Day
Next Day »
Daily Weekly Monthly Yearly Custom
  High: Low: Average:
Temperature: -17.8 °C 8.7 °C 11.4 °C
Dew Point: -17.8 °C 3.2 °C 7.1 °C
Humidity: Humidity % 46 % 76 %
Wind Speed: 0 km/h 2.1 km/h 10.8 km/h
Wind Gust: 0 km/h - -
Wind:- - NW
Pressure: 0 hPa 1006 hPa -
Precipitation: 3.05 mm    
Historical Graphs
 
 
Ararat weather Find more about Weather in Ararat, AU


 



 


Tabular Data for May 4, 2018
Time Temperature Dew Point Pressure Wind Wind Speed Wind Gust Humidity Rainfall Rate (Hourly)
-17.8 °C -17.8 °C 0 hPa Calm     Humidity % 0 mm
00:04 11.2 °C 10.2 °C 1006.3 hPa NNW 10.9 km/h 18.5 km/h 94 % 0.25 mm
00:09 11.1 °C 10.2 °C 1006.3 hPa NW 11.4 km/h 18.5 km/h 94 % 0.25 mm
00:14 11.1 °C 10 °C 1006.3 hPa North 10.9 km/h 13 km/h 93 % 0.25 mm
00:19 11.1 °C 9.9 °C 1006.3 hPa North 10.1 km/h 16.7 km/h 93 % 0.25 mm
00:24 11 °C 9.9 °C 1006.3 hPa North 7.7 km/h 18.5 km/h 93 % 0 mm
00:29 10.9 °C 9.8 °C 1006.3 hPa NW 10.3 km/h 18.5 km/h 93 % 0 mm
00:34 10.9 °C 9.8 °C 1006.3 hPa North 9 km/h 13 km/h 93 % 0 mm
00:39 10.9 °C 9.8 °C 1006.3 hPa NW 7.2 km/h 16.7 km/h 93 % 0 mm
00:44 10.8 °C 9.7 °C 1006.3 hPa NNW 7.6 km/h 13 km/h 93 % 0 mm
00:49 10.8 °C 9.7 °C 1006 hPa North 7.9 km/h 13 km/h 93 % 0 mm
00:54 10.7 °C 9.6 °C 1006 hPa NNW 7.6 km/h 13 km/h 93 % 0 mm
00:59 10.7 °C 9.6 °C 1006 hPa NNW 9 km/h 16.7 km/h 93 % 0 mm
01:04 10.7 °C 9.6 °C 1006 hPa North 9.3 km/h 16.7 km/h 93 % 0 mm
01:09 10.7 °C 9.6 °C 1006 hPa NNW 10.3 km/h 14.8 km/h 93 % 0 mm
01:14 10.7 °C 9.6 °C 1006 hPa NNW 6.4 km/h 9.3 km/h 93 % 0 mm
01:19 10.7 °C 9.6 °C 1006 hPa NNW 9.8 km/h 16.1 km/h 93 % 0 mm
01:24 10.7 °C 9.6 °C 1006 hPa NNW 2.1 km/h 5.6 km/h 93 % 0 mm
01:29 10.7 °C 9.6 °C 1006 hPa NNW 8.4 km/h 12.9 km/h 93 % 0 mm
01:34 10.7 °C 9.6 °C 1006.3 hPa North 4.5 km/h 11.3 km/h 93 % 0 mm
01:39 10.7 °C 9.6 °C 1006.3 hPa NNW 7.6 km/h 13 km/h 93 % 0 mm
01:44 10.7 °C 9.6 °C 1006.3 hPa NNW 8.2 km/h 9.7 km/h 93 % 0 mm
01:49 10.8 °C 9.7 °C 1006.3 hPa North 8.2 km/h 12.9 km/h 93 % 0 mm
01:54 10.8 °C 9.7 °C 1006.3 hPa North 9 km/h 13 km/h 93 % 0 mm
01:59 10.8 °C 9.7 °C 1006.3 hPa NNW 8.2 km/h 11.1 km/h 93 % 0 mm
02:04 10.7 °C 9.5 °C 1006.3 hPa NNW 7.7 km/h 11.1 km/h 92 % 0 mm
02:09 10.7 °C 9.6 °C 1006.3 hPa NNW 3.7 km/h 8 km/h 93 % 0 mm
02:14 10.7 °C 9.6 °C 1006.3 hPa NNW 6.8 km/h 9.3 km/h 93 % 0 mm
02:19 10.6 °C 9.5 °C 1006.3 hPa North 6.3 km/h 11.1 km/h 93 % 0 mm
02:24 10.6 °C 9.4 °C 1006.3 hPa North 4.8 km/h 11.1 km/h 93 % 0 mm
02:29 10.5 °C 9.3 °C 1006.3 hPa North 8.7 km/h 16.1 km/h 92 % 0 mm
02:34 10.4 °C 9.3 °C 1006.3 hPa North 8 km/h 14.5 km/h 93 % 0 mm
02:39 10.4 °C 9.3 °C 1006.3 hPa North 8.2 km/h 12.9 km/h 93 % 0 mm
02:44 10.4 °C 9.3 °C 1006.3 hPa North 9.8 km/h 13 km/h 93 % 0 mm
02:49 10.3 °C 9.3 °C 1006.3 hPa North 6.9 km/h 12.9 km/h 93 % 0 mm
02:54 10.3 °C 9.2 °C 1006.3 hPa North 6.1 km/h 9.7 km/h 93 % 0 mm
02:59 10.2 °C 9.2 °C 1006.3 hPa NNW 9 km/h 13 km/h 93 % 0 mm
03:04 10.2 °C 9.1 °C 1006.3 hPa NW 10 km/h 16.7 km/h 93 % 0 mm
03:09 10.1 °C 9.1 °C 1006.3 hPa NNW 8.2 km/h 13 km/h 93 % 0 mm
03:14 10.1 °C 9 °C 1006.3 hPa North 6.1 km/h 13 km/h 93 % 0 mm
03:19 10.1 °C 9 °C 1006.3 hPa NNW 8.5 km/h 12.9 km/h 93 % 0 mm
03:24 10.1 °C 9 °C 1006.3 hPa NNW 8.9 km/h 13 km/h 93 % 0 mm
03:29 10.1 °C 9 °C 1006.3 hPa NNW 4.5 km/h 6.4 km/h 93 % 0 mm
03:34 10.1 °C 9 °C 1006.3 hPa North 9.3 km/h 14.5 km/h 93 % 0 mm
03:39 10 °C 8.9 °C 1006.3 hPa North 7.4 km/h 11.3 km/h 93 % 0.25 mm
03:44 10 °C 8.9 °C 1006.3 hPa North 5 km/h 11.1 km/h 93 % 0.25 mm
03:49 9.9 °C 8.9 °C 1006.3 hPa North 6.3 km/h 9.3 km/h 93 % 0.25 mm
03:54 9.9 °C 8.9 °C 1006.3 hPa NNW 6.3 km/h 11.1 km/h 93 % 0.25 mm
03:59 9.9 °C 8.8 °C 1006.3 hPa North 6.4 km/h 7.4 km/h 93 % 0.25 mm
04:04 9.9 °C 8.8 °C 1006.3 hPa NNW 5.3 km/h 8 km/h 93 % 0.25 mm
04:09 9.9 °C 8.8 °C 1006.3 hPa NNW 7.1 km/h 9.3 km/h 93 % 0.25 mm
04:14 9.9 °C 8.8 °C 1006.3 hPa NNW 8.2 km/h 13 km/h 93 % 0.25 mm
04:19 9.9 °C 8.9 °C 1006.3 hPa NNW 6.3 km/h 9.7 km/h 94 % 0.25 mm
04:24 9.9 °C 8.9 °C 1006.3 hPa NNW 8.7 km/h 11.1 km/h 94 % 0.51 mm
04:29 9.9 °C 8.9 °C 1006.7 hPa North 6 km/h 9.3 km/h 94 % 0.51 mm
04:34 9.8 °C 8.9 °C 1006.7 hPa NNW 7.4 km/h 11.1 km/h 94 % 1.02 mm
04:44 9.4 °C 8.4 °C 1007 hPa West 18.5 km/h 24.1 km/h 93 % 1.27 mm
04:49 9.3 °C 8.3 °C 1007 hPa North 16.7 km/h 22.2 km/h 93 % 1.27 mm
04:54 9.3 °C 8.1 °C 1007 hPa WNW 12.1 km/h 14.8 km/h 92 % 1.27 mm
04:59 9.2 °C 7.9 °C 1007 hPa WNW 10.8 km/h 11.1 km/h 92 % 1.52 mm
05:04 9.2 °C 7.8 °C 1007 hPa North 7.9 km/h 14.8 km/h 91 % 1.52 mm
05:09 9.2 °C 7.8 °C 1007.3 hPa WNW 5.8 km/h 13 km/h 91 % 1.52 mm
05:14 9.1 °C 7.7 °C 1007 hPa NW 9 km/h 13 km/h 91 % 1.52 mm
05:19 9 °C 7.4 °C 1007 hPa NW 7.1 km/h 9.3 km/h 90 % 1.78 mm
05:24 8.9 °C 7.4 °C 1007 hPa NW 6.8 km/h 8 km/h 90 % 1.52 mm
05:29 9 °C 7.4 °C 1007.3 hPa NW 5.1 km/h 7.4 km/h 90 % 1.27 mm
05:34 8.9 °C 7.4 °C 1007.3 hPa North 8.2 km/h 13 km/h 90 % 1.02 mm
05:39 9 °C 7.4 °C 1007.3 hPa NW 8.4 km/h 11.1 km/h 90 % 0.51 mm
05:44 8.9 °C 8.1 °C 1007.3 hPa NNW 7.2 km/h 11.1 km/h 94 % 0.51 mm
05:49 8.9 °C 7.4 °C 1007.7 hPa NNW 7.4 km/h 9.7 km/h 90 % 0.51 mm
05:54 8.9 °C 7.1 °C 1007.7 hPa NW 12.6 km/h 16.7 km/h 88 % 0.51 mm
05:59 9.1 °C 7.1 °C 1007.7 hPa NW 11.6 km/h 14.8 km/h 87 % 0.25 mm
06:04 9.2 °C 6.9 °C 1007.7 hPa NW 12.4 km/h 19.3 km/h 86 % 0.25 mm
06:09 9.2 °C 7 °C 1007.7 hPa WNW 9.5 km/h 16.1 km/h 86 % 0.25 mm
06:14 9.2 °C 6.8 °C 1008 hPa North 15 km/h 22.2 km/h 85 % 0.25 mm
06:16 9.2 °C 6.8 °C 1008 hPa NW 11.7 km/h 18.5 km/h 85 % 0 mm
06:21 9.2 °C 7 °C 1008 hPa NW 10.5 km/h 14.8 km/h 86 % 0 mm
06:26 9.1 °C 6.9 °C 1008 hPa NNW 4.2 km/h 9.3 km/h 86 % 0 mm
06:31 9 °C 6.9 °C 1008 hPa NW 8.9 km/h 8.9 km/h 87 % 0 mm
06:36 8.9 °C 7.1 °C 1008 hPa NW 11.1 km/h 11.3 km/h 88 % 0 mm
06:41 8.8 °C 7.1 °C 1008.4 hPa NW 11.4 km/h 18.5 km/h 89 % 0 mm
06:46 8.8 °C 7.2 °C 1008.4 hPa NNW 11.1 km/h 16.7 km/h 90 % 0 mm
06:51 8.8 °C 7.2 °C 1008.4 hPa NNW 11.1 km/h 18.5 km/h 90 % 0 mm
06:56 8.8 °C 7.2 °C 1008.7 hPa NNW 11.7 km/h 14.8 km/h 90 % 0 mm
07:01 8.8 °C 7.2 °C 1008.7 hPa North 7.2 km/h 11.3 km/h 90 % 0 mm
07:06 8.8 °C 7.4 °C 1009 hPa NNW 10.3 km/h 14.8 km/h 91 % 0 mm
07:11 8.8 °C 7.4 °C 1009 hPa NNW 8.4 km/h 13 km/h 91 % 0 mm
07:16 8.8 °C 7.4 °C 1009 hPa North 8.5 km/h 13 km/h 91 % 0 mm
07:21 8.8 °C 7.4 °C 1009 hPa North 8.5 km/h 18.5 km/h 91 % 0 mm
07:26 8.7 °C 7.3 °C 1009.4 hPa NNW 8.9 km/h 13 km/h 91 % 0 mm
07:31 8.7 °C 7.5 °C 1009.4 hPa NNW 6.1 km/h 11.1 km/h 92 % 0 mm
07:36 8.7 °C 7.5 °C 1009.4 hPa North 7.6 km/h 7.6 km/h 92 % 0 mm
07:41 8.7 °C 7.4 °C 1009.7 hPa North 9.7 km/h 14.8 km/h 92 % 0.25 mm
07:46 8.7 °C 7.4 °C 1009.7 hPa North 4 km/h 7.4 km/h 92 % 0.25 mm
07:51 8.7 °C 7.4 °C 1009.7 hPa North 6.3 km/h 11.1 km/h 92 % 0.25 mm
07:56 8.7 °C 7.7 °C 1010 hPa NW 2.4 km/h 5.6 km/h 93 % 0.25 mm
08:01 8.8 °C 7.7 °C 1010 hPa NW 4.7 km/h 9.3 km/h 93 % 0.25 mm
08:06 8.8 °C 7.6 °C 1010.4 hPa NW 7.6 km/h 13 km/h 92 % 0.25 mm
08:11 8.9 °C 8.3 °C 1010.4 hPa NW 10.6 km/h 16.7 km/h 96 % 0.25 mm
08:16 9.2 °C 7.8 °C 1010.7 hPa WNW 10.3 km/h 13 km/h 91 % 0.25 mm
08:21 9.2 °C 7.7 °C 1010.7 hPa NW 8.4 km/h 13 km/h 90 % 0.25 mm
08:26 9.2 °C 7.7 °C 1011.1 hPa NW 6.3 km/h 7.4 km/h 90 % 0.25 mm
08:31 9.3 °C 7.7 °C 1011.1 hPa WNW 11.6 km/h 14.8 km/h 90 % 0.25 mm
08:36 9.4 °C 7.7 °C 1011.1 hPa West 11.1 km/h 16.7 km/h 89 % 0.25 mm
08:41 9.6 °C 7.7 °C 1011.4 hPa WNW 7.4 km/h 9.3 km/h 88 % 0 mm
08:46 9.6 °C 7.7 °C 1011.7 hPa West 9.8 km/h 14.8 km/h 88 % 0.25 mm
08:51 9.6 °C 7.7 °C 1011.7 hPa West 11.9 km/h 16.7 km/h 88 % 0.25 mm
08:56 9.5 °C 7.4 °C 1011.7 hPa West 17.4 km/h 24.1 km/h 87 % 0.25 mm
09:01 9.6 °C 7.5 °C 1012.1 hPa West 9.8 km/h 13 km/h 87 % 0.51 mm
09:06 9.5 °C 7.4 °C 1012.1 hPa West 9.5 km/h 14.8 km/h 87 % 0.51 mm
09:11 9.6 °C 7.5 °C 1012.1 hPa West 10.6 km/h 20.4 km/h 87 % 0.51 mm
09:16 9.6 °C 7.6 °C 1012.1 hPa West 11.6 km/h 14.8 km/h 87 % 0.51 mm
09:21 9.4 °C 7.4 °C 1012.1 hPa WNW 14 km/h 18.5 km/h 87 % 0.51 mm
09:26 9.3 °C 7.4 °C 1012.1 hPa West 11.1 km/h 13 km/h 88 % 0.76 mm
09:31 9.3 °C 7.4 °C 1012.1 hPa West 8.9 km/h 14.8 km/h 88 % 0.76 mm
09:36 9.4 °C 7.6 °C 1012.1 hPa WSW 17.2 km/h 24.1 km/h 88 % 0.76 mm
09:41 9.6 °C 7.7 °C 1012.4 hPa West 11.6 km/h 18.5 km/h 88 % 0.76 mm
09:46 9.7 °C 7.8 °C 1012.4 hPa West 9.8 km/h 14.8 km/h 88 % 0.51 mm
09:51 9.8 °C 7.9 °C 1012.4 hPa West 8.2 km/h 13 km/h 88 % 0.51 mm
09:56 10 °C 7.9 °C 1012.4 hPa West 15.3 km/h 22.2 km/h 87 % 0.51 mm
10:01 10.5 °C 8.3 °C 1012.8 hPa WSW 9.7 km/h 14.8 km/h 86 % 0.51 mm
10:06 10.9 °C 8.3 °C 1012.8 hPa West 16.3 km/h 25.7 km/h 84 % 0.51 mm
10:11 11.2 °C 8.2 °C 1012.8 hPa West 18.3 km/h 27.8 km/h 82 % 0.51 mm
10:16 11.3 °C 7.9 °C 1013.1 hPa West 19.8 km/h 27.8 km/h 80 % 0.51 mm
10:21 11.3 °C 8.2 °C 1013.1 hPa North 14.2 km/h 18.5 km/h 81 % 0.25 mm
10:26 11.3 °C 8 °C 1013.1 hPa WNW 17.7 km/h 22.5 km/h 80 % 0 mm
10:31 11.4 °C 7.7 °C 1013.1 hPa West 18.8 km/h 27.8 km/h 78 % 0 mm
10:36 11.7 °C 7.9 °C 1013.1 hPa West 14.3 km/h 27.4 km/h 78 % 0 mm
10:41 11.9 °C 8.4 °C 1013.4 hPa West 12.1 km/h 14.8 km/h 79 % 0 mm
10:46 12.1 °C 8.2 °C 1013.4 hPa West 13.7 km/h 20.9 km/h 77 % 0 mm
10:51 12.2 °C 8.3 °C 1013.8 hPa WNW 17.4 km/h 20.4 km/h 77 % 0 mm
10:56 12.1 °C 8.2 °C 1013.8 hPa NW 20.9 km/h 27.8 km/h 77 % 0 mm
11:01 12.2 °C 7.7 °C 1013.8 hPa North 15 km/h 18.5 km/h 74 % 0 mm
11:04 12.2 °C 7.4 °C 1013.8 hPa WSW 23 km/h 31.5 km/h 73 % 0 mm
11:09 12.5 °C 7.8 °C 1014.1 hPa WSW 15.1 km/h 25.9 km/h 73 % 0 mm
11:14 12.4 °C 7.7 °C 1014.1 hPa WSW 12.4 km/h 16.7 km/h 73 % 0 mm
11:19 12.5 °C 8 °C 1014.1 hPa West 8.4 km/h 11.1 km/h 74 % 0 mm
11:24 12.6 °C 7.7 °C 1014.1 hPa West 15.9 km/h 22.2 km/h 72 % 0 mm
11:29 12.8 °C 7.4 °C 1014.4 hPa West 25.3 km/h 37 km/h 70 % 0 mm
11:34 12.9 °C 7.2 °C 1014.4 hPa WNW 22.2 km/h 31.5 km/h 68 % 0 mm
11:39 13 °C 6.8 °C 1014.4 hPa West 24.8 km/h 31.5 km/h 66 % 0 mm
11:44 13.4 °C 7.8 °C 1014.1 hPa WNW 15.1 km/h 19.3 km/h 69 % 0 mm
11:49 13.7 °C 7.5 °C 1014.4 hPa WSW 25.4 km/h 32.2 km/h 66 % 0 mm
11:54 13.7 °C 7.2 °C 1014.4 hPa North 24.8 km/h 31.5 km/h 65 % 0 mm
11:59 13.6 °C 6.9 °C 1014.1 hPa West 23.5 km/h 27.8 km/h 64 % 0 mm
12:04 13.7 °C 6.8 °C 1014.4 hPa West 21.4 km/h 27.8 km/h 63 % 0 mm
12:09 13.9 °C 6.5 °C 1014.1 hPa WSW 24.5 km/h 31.5 km/h 61 % 0 mm
12:10 13.8 °C 6.4 °C 1014.1 hPa WSW 15.4 km/h 31.5 km/h 61 % 0 mm
12:15 13.9 °C 6.6 °C 1014.1 hPa West 25.1 km/h 31.5 km/h 61 % 0 mm
12:20 14.2 °C 6.7 °C 1014.1 hPa West 20 km/h 29.6 km/h 61 % 0 mm
12:25 14.6 °C 6.9 °C 1014.1 hPa WSW 15.3 km/h 22.2 km/h 60 % 0 mm
12:30 14.3 °C 6.2 °C 1014.1 hPa West 24.6 km/h 31.5 km/h 58 % 0 mm
12:35 14.2 °C 5.8 °C 1014.1 hPa West 21.7 km/h 31.5 km/h 57 % 0 mm
12:40 14.2 °C 6.3 °C 1014.1 hPa West 12.9 km/h 22.2 km/h 59 % 0 mm
12:45 14.1 °C 5.7 °C 1014.4 hPa WNW 22.9 km/h 22.9 km/h 57 % 0 mm
12:50 14 °C 5.8 °C 1014.4 hPa West 13.7 km/h 18.5 km/h 58 % 0 mm
12:55 14.1 °C 4.9 °C 1014.4 hPa West 17.4 km/h 18.5 km/h 54 % 0 mm
13:00 14.2 °C 5.3 °C 1014.4 hPa West 13.5 km/h 20.4 km/h 55 % 0 mm
13:05 14.6 °C 4.8 °C 1014.4 hPa West 17.2 km/h 18.5 km/h 52 % 0 mm
13:10 14.8 °C 5 °C 1014.4 hPa WSW 18 km/h 25.9 km/h 52 % 0 mm
13:15 14.9 °C 5.1 °C 1014.4 hPa WSW 17.9 km/h 22.2 km/h 52 % 0 mm
13:20 14.7 °C 5.2 °C 1014.4 hPa West 19.5 km/h 22.2 km/h 53 % 0 mm
13:25 14.4 °C 5 °C 1014.4 hPa West 11.9 km/h 13 km/h 53 % 0 mm
13:28 14.6 °C 5.3 °C 1014.4 hPa West 14.8 km/h 22.2 km/h 54 % 0 mm
13:33 14.5 °C 5.3 °C 1014.4 hPa SW 10.9 km/h 22.2 km/h 54 % 0 mm
13:38 14.5 °C 5.8 °C 1014.4 hPa WSW 8.4 km/h 14.8 km/h 56 % 0 mm
13:43 14.6 °C 5.3 °C 1014.4 hPa WSW 9.7 km/h 17.7 km/h 54 % 0 mm
13:48 14.4 °C 5.4 °C 1014.8 hPa WSW 23 km/h 37 km/h 55 % 0 mm
13:53 13.1 °C 6.4 °C 1015.1 hPa WSW 15.4 km/h 25.9 km/h 64 % 0 mm
13:58 12.7 °C 6.3 °C 1015.1 hPa West 19.5 km/h 25.9 km/h 65 % 0 mm
14:03 13.1 °C 5.7 °C 1015.1 hPa West 12.1 km/h 16.7 km/h 61 % 0 mm
14:08 13.7 °C 4.5 °C 1014.8 hPa North 15.3 km/h 20.4 km/h 54 % 0 mm
14:13 13.9 °C 3.9 °C 1014.8 hPa West 15 km/h 24.1 km/h 51 % 0 mm
14:18 14.2 °C 4.2 °C 1014.8 hPa West 17.1 km/h 22.2 km/h 51 % 0 mm
14:23 14.6 °C 4.5 °C 1014.8 hPa West 13.8 km/h 27.4 km/h 51 % 0 mm
14:28 14.7 °C 3.2 °C 1015.1 hPa West 17.4 km/h 27.8 km/h 46 % 0 mm
14:33 14.8 °C 3.3 °C 1015.1 hPa West 17.4 km/h 27.8 km/h 46 % 0 mm
14:38 14.8 °C 3.9 °C 1015.1 hPa NW 20 km/h 25.9 km/h 48 % 0 mm
14:43 14.8 °C 4.7 °C 1015.1 hPa WNW 13.2 km/h 27.4 km/h 51 % 0 mm
14:48 14.7 °C 4.6 °C 1015.1 hPa WSW 19.6 km/h 25.9 km/h 51 % 0 mm
14:53 14.8 °C 5.1 °C 1015.5 hPa North 15 km/h 18.5 km/h 52 % 0 mm
14:58 15.1 °C 5.3 °C 1015.5 hPa WNW 17.4 km/h 25.9 km/h 52 % 0 mm
15:03 14.7 °C 4.9 °C 1015.5 hPa WNW 16.7 km/h 25.9 km/h 52 % 0 mm
15:08 14.2 °C 4.2 °C 1015.8 hPa WNW 14.6 km/h 18.5 km/h 51 % 0 mm
15:13 14.2 °C 4.7 °C 1015.8 hPa West 19.2 km/h 24.1 km/h 53 % 0 mm
15:18 14.1 °C 4.1 °C 1015.8 hPa North 18.8 km/h 22.2 km/h 51 % 0 mm
15:23 14.1 °C 4.3 °C 1015.8 hPa West 11.1 km/h 20.4 km/h 52 % 0 mm
15:28 14.1 °C 4.3 °C 1016.1 hPa WSW 12.4 km/h 18.5 km/h 52 % 0 mm
15:33 14.1 °C 4.7 °C 1016.1 hPa WSW 13.4 km/h 18.5 km/h 53 % 0 mm
15:38 14.1 °C 4.4 °C 1016.5 hPa North 13.7 km/h 18.5 km/h 52 % 0 mm
15:43 14 °C 4.8 °C 1016.5 hPa WSW 11.3 km/h 18.5 km/h 54 % 0 mm
15:48 13.9 °C 4.2 °C 1016.8 hPa WSW 16.7 km/h 18.5 km/h 52 % 0 mm
15:53 13.8 °C 4.1 °C 1016.8 hPa West 18.8 km/h 24.1 km/h 52 % 0 mm
15:58 13.7 °C 4.3 °C 1016.8 hPa SW 9.3 km/h 12.9 km/h 53 % 0 mm
16:03 13.6 °C 4.7 °C 1017.2 hPa West 19.5 km/h 25.9 km/h 55 % 0 mm
16:08 13.5 °C 5.2 °C 1017.2 hPa SW 8.7 km/h 16.7 km/h 57 % 0 mm
16:13 13.3 °C 5.5 °C 1017.2 hPa WSW 11.6 km/h 14.8 km/h 59 % 0 mm
16:18 13.2 °C 5.6 °C 1017.2 hPa WNW 17.9 km/h 20.4 km/h 60 % 0 mm
16:23 13.1 °C 5.5 °C 1017.2 hPa WSW 10.1 km/h 13 km/h 60 % 0 mm
16:28 13 °C 5.7 °C 1017.5 hPa WSW 6 km/h 9.3 km/h 61 % 0 mm
16:33 12.9 °C 5.8 °C 1017.5 hPa North 6.4 km/h 9.7 km/h 62 % 0 mm
16:38 12.9 °C 5.8 °C 1017.5 hPa North 7.4 km/h 8 km/h 62 % 0 mm
16:43 13.1 °C 5.3 °C 1017.5 hPa WNW 19.8 km/h 25.9 km/h 59 % 0 mm
16:48 13.1 °C 5.3 °C 1017.8 hPa WNW 15.8 km/h 22.5 km/h 59 % 0 mm
16:53 13.1 °C 5.5 °C 1017.8 hPa WNW 15.1 km/h 18.5 km/h 60 % 0 mm
16:58 13.1 °C 5.4 °C 1017.8 hPa NW 8.5 km/h 13 km/h 60 % 0 mm
17:03 13.1 °C 5.7 °C 1017.8 hPa North 6 km/h 13 km/h 61 % 0 mm
17:08 12.9 °C 5.6 °C 1017.8 hPa NW 6.8 km/h 13 km/h 61 % 0 mm
17:13 12.8 °C 5.7 °C 1017.8 hPa NW 3.4 km/h 3.7 km/h 62 % 0 mm
17:18 12.7 °C 5.6 °C 1018.2 hPa North 8.9 km/h 9.7 km/h 62 % 0 mm
17:23 12.6 °C 5.7 °C 1018.2 hPa NW 8.5 km/h 12.9 km/h 63 % 0 mm
17:28 12.6 °C 5.7 °C 1018.5 hPa NW 9 km/h 14.5 km/h 63 % 0 mm
17:33 12.6 °C 5.5 °C 1018.5 hPa WNW 8.9 km/h 11.1 km/h 62 % 0 mm
17:38 12.6 °C 5.4 °C 1018.5 hPa WNW 11.4 km/h 14.8 km/h 62 % 0 mm
17:43 12.4 °C 5.3 °C 1018.5 hPa WNW 7.4 km/h 9.7 km/h 62 % 0 mm
17:48 12.3 °C 5.3 °C 1018.5 hPa WNW 5.6 km/h 11.1 km/h 62 % 0 mm
17:53 12.2 °C 5.4 °C 1018.5 hPa WNW 9.3 km/h 14.8 km/h 63 % 0 mm
17:59 12.1 °C 5.3 °C 1018.5 hPa WNW 4.5 km/h 5.6 km/h 63 % 0 mm
18:04 12 °C 5.4 °C 1018.8 hPa WNW 8.7 km/h 13 km/h 64 % 0 mm
18:09 12 °C 5.4 °C 1018.8 hPa WNW 6 km/h 6 km/h 64 % 0 mm
18:14 12.1 °C 5.4 °C 1018.8 hPa WNW 6.3 km/h 9.3 km/h 64 % 0 mm
18:19 12.1 °C 5.7 °C 1018.8 hPa North 4 km/h 5.6 km/h 65 % 0 mm
18:24 12.1 °C 5.7 °C 1018.8 hPa WNW 4.8 km/h 7.4 km/h 65 % 0 mm
18:29 12.2 °C 5.8 °C 1018.8 hPa North 6.3 km/h 9.3 km/h 65 % 0 mm
18:34 12.2 °C 6.1 °C 1019.2 hPa WNW 5.1 km/h 7.4 km/h 66 % 0 mm
18:39 12.3 °C 5.9 °C 1019.2 hPa WNW 5.3 km/h 8 km/h 65 % 0 mm
18:44 12.4 °C 6 °C 1019.2 hPa North 9 km/h 14.8 km/h 65 % 0 mm
18:49 12.5 °C 6.1 °C 1019.5 hPa WNW 10.5 km/h 16.7 km/h 65 % 0 mm
18:54 12.5 °C 6.1 °C 1019.5 hPa WNW 11.1 km/h 14.8 km/h 65 % 0 mm
18:59 12.6 °C 6.2 °C 1019.5 hPa WNW 9.3 km/h 14.8 km/h 65 % 0 mm
19:04 12.6 °C 6.2 °C 1019.5 hPa NW 9.3 km/h 13 km/h 65 % 0 mm
19:09 12.6 °C 6.2 °C 1019.5 hPa NW 5.3 km/h 6.4 km/h 65 % 0 mm
19:14 12.5 °C 6.3 °C 1019.9 hPa NW 7.1 km/h 11.1 km/h 66 % 0 mm
19:19 12.4 °C 6.2 °C 1019.9 hPa WNW 9.8 km/h 16.7 km/h 66 % 0 mm
19:24 12.4 °C 6.2 °C 1019.9 hPa WNW 11.1 km/h 14.8 km/h 66 % 0 mm
19:29 12.3 °C 6.1 °C 1019.9 hPa WNW 15.9 km/h 22.2 km/h 66 % 0 mm
19:34 12.2 °C 6.2 °C 1019.9 hPa North 15 km/h 18.5 km/h 67 % 0 mm
19:39 12.2 °C 6.1 °C 1019.9 hPa North 10.1 km/h 13 km/h 66 % 0 mm
19:44 12.1 °C 6.2 °C 1019.9 hPa West 11.7 km/h 18.5 km/h 67 % 0 mm
19:49 12.1 °C 6.1 °C 1019.9 hPa West 9 km/h 18.5 km/h 67 % 0 mm
19:54 12 °C 6.1 °C 1020.2 hPa West 8.2 km/h 9.3 km/h 67 % 0 mm
19:59 11.9 °C 6 °C 1020.2 hPa West 6.3 km/h 9.3 km/h 67 % 0 mm
20:04 11.9 °C 6.2 °C 1020.2 hPa West 8 km/h 13 km/h 68 % 0 mm
20:09 11.9 °C 6.2 °C 1020.5 hPa North 10.9 km/h 17.7 km/h 68 % 0 mm
20:14 12.1 °C 6.3 °C 1020.5 hPa North 10.1 km/h 14.8 km/h 68 % 0 mm
20:19 12.2 °C 6.5 °C 1020.5 hPa WNW 15.8 km/h 20.4 km/h 68 % 0 mm
20:24 12.2 °C 6.7 °C 1020.5 hPa WNW 10.1 km/h 14.8 km/h 69 % 0 mm
20:29 12.2 °C 6.7 °C 1020.5 hPa WNW 9 km/h 11.1 km/h 69 % 0 mm
20:34 12.2 °C 6.7 °C 1020.5 hPa WNW 8.9 km/h 14.8 km/h 69 % 0 mm
20:39 12.2 °C 6.8 °C 1020.5 hPa WNW 11.6 km/h 16.7 km/h 70 % 0 mm
20:44 12.1 °C 7 °C 1020.5 hPa WNW 12.2 km/h 14.8 km/h 71 % 0 mm
20:49 12.1 °C 7 °C 1020.5 hPa WNW 5.1 km/h 11.1 km/h 71 % 0 mm
20:54 12 °C 7.1 °C 1020.5 hPa NW 5.6 km/h 11.3 km/h 72 % 0 mm
20:59 12 °C 7.1 °C 1020.5 hPa WNW 10.1 km/h 18.5 km/h 72 % 0 mm
21:04 11.9 °C 7 °C 1020.5 hPa NW 10.5 km/h 14.8 km/h 72 % 0 mm
21:09 12 °C 7.1 °C 1020.5 hPa NW 16.4 km/h 22.2 km/h 72 % 0 mm
21:14 12.1 °C 7.2 °C 1020.5 hPa WNW 11.9 km/h 20.4 km/h 72 % 0 mm
21:19 12 °C 7.1 °C 1020.5 hPa WNW 3.7 km/h 5.6 km/h 72 % 0 mm
21:24 11.9 °C 7.1 °C 1020.9 hPa NNW 8.4 km/h 11.1 km/h 72 % 0 mm
21:29 11.9 °C 7.3 °C 1020.9 hPa NW 8.9 km/h 13 km/h 73 % 0 mm
21:34 11.8 °C 7.2 °C 1020.9 hPa WNW 12.1 km/h 18.5 km/h 73 % 0 mm
21:39 11.9 °C 7.4 °C 1020.9 hPa NW 7.1 km/h 14.5 km/h 74 % 0 mm
21:44 11.8 °C 7.3 °C 1020.9 hPa NNW 8.9 km/h 18.5 km/h 74 % 0 mm
21:49 11.8 °C 7.3 °C 1021.2 hPa North 5.8 km/h 6.4 km/h 74 % 0 mm
21:54 11.8 °C 7.5 °C 1021.2 hPa NNW 6 km/h 9.3 km/h 75 % 0 mm
21:59 11.7 °C 7.4 °C 1021.2 hPa NNW 5.3 km/h 7.4 km/h 75 % 0 mm
22:04 11.7 °C 7.4 °C 1021.2 hPa North 6.3 km/h 7.4 km/h 75 % 0 mm
22:09 11.7 °C 7.4 °C 1021.2 hPa NNW 4.3 km/h 7.4 km/h 75 % 0 mm
22:14 11.7 °C 7.4 °C 1021.6 hPa North 7.1 km/h 16.7 km/h 75 % 0 mm
22:19 11.7 °C 7.4 °C 1021.6 hPa WNW 10.9 km/h 14.8 km/h 75 % 0 mm
22:24 11.7 °C 7.4 °C 1021.2 hPa WNW 3.4 km/h 6.4 km/h 75 % 0 mm
22:29 11.6 °C 7.3 °C 1021.6 hPa North 9 km/h 13 km/h 75 % 0 mm
22:34 11.6 °C 7.3 °C 1021.6 hPa NW 14 km/h 18.5 km/h 75 % 0 mm
22:39 11.8 °C 7.3 °C 1021.6 hPa NNW 7.4 km/h 9.7 km/h 74 % 0 mm
22:44 11.7 °C 7.4 °C 1021.6 hPa North 7.4 km/h 11.1 km/h 75 % 0 mm
22:49 11.7 °C 7.4 °C 1021.6 hPa North 4.7 km/h 9.3 km/h 75 % 0 mm
22:54 11.6 °C 7.3 °C 1021.6 hPa NW 6.4 km/h 8 km/h 75 % 0 mm
22:56 11.6 °C 7.3 °C 1021.6 hPa NW 7.9 km/h 11.1 km/h 75 % 0 mm
23:01 11.6 °C 7.3 °C 1021.6 hPa NW 8 km/h 14.8 km/h 75 % 0 mm
23:05 11.6 °C 7.3 °C 1021.6 hPa NNW 5.1 km/h 11.1 km/h 75 % 0 mm
23:08 11.6 °C 7.3 °C 1021.6 hPa North 7.9 km/h 7.9 km/h 75 % 0 mm
23:13 11.5 °C 7.4 °C 1021.6 hPa NNW 7.7 km/h 14.8 km/h 76 % 0 mm
23:18 11.5 °C 7.2 °C 1021.6 hPa North 8 km/h 11.1 km/h 75 % 0 mm
23:23 11.5 °C 7.4 °C 1021.6 hPa North 4.2 km/h 7.4 km/h 76 % 0 mm
23:28 11.4 °C 7.3 °C 1021.6 hPa North 11.1 km/h 16.7 km/h 76 % 0 mm
23:33 11.5 °C 7.4 °C 1021.6 hPa North 10 km/h 18.5 km/h 76 % 0 mm
23:38 11.4 °C 7.3 °C 1021.6 hPa North 6.6 km/h 9.3 km/h 76 % 0 mm
23:43 11.4 °C 7.3 °C 1021.6 hPa North 3.1 km/h 7.4 km/h 76 % 0 mm
23:48 11.4 °C 7.5 °C 1021.6 hPa North 5.1 km/h 11.1 km/h 77 % 0 mm
23:53 11.4 °C 7.5 °C 1021.6 hPa North 4.8 km/h 7.4 km/h 77 % 0 mm
23:58 11.6 °C 7.7 °C 1021.6 hPa NNW 6.1 km/h 9.3 km/h 77 % 0 mm
Ararat Weather
Compliments of Weather Underground - 2.5 mb
Click here to send mail.


ABOUT

Live weather data from Ararat, Victoria, Australia, 3377
Data uploaded from Cumulus every 5 minutes to Weather Underground.
This site then downloads the raw data for formatting and display.
Metric and imperial data can be displayed. Graphs and historical data available.
Includes Sun and Moon times and rain image live from BOM.

Check out Ararat Weather on Facebook, Twitter and Google +

Help support ongoing costs by checking out the ads





Follow @AraratWeather